createdAt,value
2023-03-24T00:00:21.957Z,3.40
2023-03-24T00:03:11.538Z,3.00
2023-03-24T00:05:41.059Z,3.00
2023-03-24T00:08:10.536Z,3.20
2023-03-24T00:10:40.990Z,2.70
2023-03-24T00:13:09.873Z,3.00
2023-03-24T00:15:39.055Z,3.20
2023-03-24T00:18:11.369Z,2.80
2023-03-24T00:20:42.855Z,2.90
2023-03-24T00:23:12.806Z,2.70
2023-03-24T00:25:42.111Z,3.10
2023-03-24T00:28:11.835Z,3.10
2023-03-24T00:30:42.651Z,3.30
2023-03-24T00:33:11.871Z,2.70
2023-03-24T00:35:40.579Z,3.10
2023-03-24T00:38:11.176Z,2.80
2023-03-24T00:40:39.956Z,2.70
2023-03-24T00:43:09.079Z,2.80
2023-03-24T00:45:37.857Z,3.10
2023-03-24T00:48:06.780Z,3.30
2023-03-24T00:50:35.637Z,3.10
2023-03-24T00:53:04.522Z,3.40
2023-03-24T00:55:34.316Z,2.90
2023-03-24T00:58:03.323Z,3.00
2023-03-24T01:00:32.976Z,3.00
2023-03-24T01:03:04.034Z,2.60
2023-03-24T01:05:33.662Z,2.60
2023-03-24T01:08:06.731Z,3.20
2023-03-24T01:10:42.941Z,3.30
2023-03-24T01:13:12.012Z,2.90
2023-03-24T01:15:40.584Z,3.30
2023-03-24T01:18:10.358Z,4.00
2023-03-24T01:20:41.264Z,4.20
2023-03-24T01:23:10.760Z,3.40
2023-03-24T01:25:40.471Z,3.80
2023-03-24T01:28:09.461Z,3.00
2023-03-24T01:30:38.127Z,3.40
2023-03-24T01:33:07.889Z,3.10
2023-03-24T01:35:37.376Z,3.30
2023-03-24T01:38:12.042Z,2.80
2023-03-24T01:40:43.389Z,2.70
2023-03-24T01:43:22.599Z,2.90
2023-03-24T01:45:51.575Z,3.00
2023-03-24T01:48:37.653Z,3.00
2023-03-24T01:51:13.392Z,2.70
2023-03-24T01:53:49.245Z,3.00
2023-03-24T01:56:18.426Z,3.30
2023-03-24T01:58:53.122Z,3.00
2023-03-24T02:01:31.200Z,2.90
2023-03-24T02:04:10.057Z,2.90
2023-03-24T02:06:44.513Z,2.60
2023-03-24T02:09:14.682Z,3.20
2023-03-24T02:11:43.969Z,2.60
2023-03-24T02:14:13.254Z,2.50
2023-03-24T02:17:22.071Z,3.20
2023-03-24T02:19:54.138Z,2.40
2023-03-24T02:22:49.765Z,2.80
2023-03-24T02:25:43.519Z,3.20
2023-03-24T02:28:35.954Z,3.10
2023-03-24T02:31:39.080Z,2.90
2023-03-24T02:34:13.784Z,2.40
2023-03-24T02:36:43.405Z,2.50
2023-03-24T02:39:27.423Z,2.70
2023-03-24T02:41:56.347Z,2.50
2023-03-24T02:44:48.883Z,2.80
2023-03-24T02:47:29.562Z,2.90
2023-03-24T02:50:19.662Z,2.60
2023-03-24T02:53:11.866Z,2.70
2023-03-24T02:55:52.303Z,2.40
2023-03-24T02:58:32.933Z,2.40
2023-03-24T03:01:15.307Z,2.70
2023-03-24T03:04:23.616Z,2.40
2023-03-24T03:06:58.020Z,2.90
2023-03-24T03:09:28.660Z,2.50
2023-03-24T03:11:59.185Z,3.00
2023-03-24T03:14:42.051Z,2.70
2023-03-24T03:17:16.166Z,2.70
2023-03-24T03:19:50.689Z,3.00
2023-03-24T03:22:25.029Z,2.90
2023-03-24T03:24:56.201Z,2.60
2023-03-24T03:27:29.704Z,2.60
2023-03-24T03:30:03.065Z,2.80
2023-03-24T03:32:35.182Z,3.00
2023-03-24T03:35:17.666Z,3.00
2023-03-24T03:38:21.516Z,2.70
2023-03-24T03:40:56.149Z,2.40
2023-03-24T03:43:28.675Z,2.80
2023-03-24T03:45:58.838Z,2.90
2023-03-24T03:48:33.030Z,2.50
2023-03-24T03:51:13.140Z,2.50
2023-03-24T03:53:55.057Z,2.80
2023-03-24T03:56:27.308Z,2.70
2023-03-24T03:59:06.703Z,3.00
2023-03-24T04:01:37.700Z,2.70
2023-03-24T04:04:38.984Z,2.50
2023-03-24T04:07:43.390Z,2.60
2023-03-24T04:10:44.748Z,2.90
2023-03-24T04:13:45.529Z,2.70
2023-03-24T04:16:34.435Z,2.70
2023-03-24T04:19:21.781Z,2.50
2023-03-24T04:22:10.681Z,2.60
2023-03-24T04:24:50.296Z,2.70
2023-03-24T04:27:52.323Z,2.70
2023-03-24T04:30:48.260Z,2.70
2023-03-24T04:33:31.889Z,2.60
2023-03-24T04:36:45.012Z,3.40
2023-03-24T04:39:31.768Z,2.50
2023-03-24T04:42:04.979Z,2.70
2023-03-24T04:44:34.325Z,2.50
2023-03-24T04:47:21.765Z,2.70
2023-03-24T04:50:07.174Z,2.30
2023-03-24T04:52:36.328Z,2.60
2023-03-24T04:55:38.088Z,2.90
2023-03-24T04:58:07.067Z,2.60
2023-03-24T05:00:37.503Z,2.50
2023-03-24T05:03:08.438Z,2.20
2023-03-24T05:05:37.226Z,2.60
2023-03-24T05:08:06.475Z,2.70
2023-03-24T05:10:36.346Z,2.40
2023-03-24T05:13:07.476Z,2.20
2023-03-24T05:15:47.624Z,2.20
2023-03-24T05:18:27.471Z,2.30
2023-03-24T05:20:58.408Z,2.80
2023-03-24T05:23:27.610Z,2.50
2023-03-24T05:25:57.122Z,2.60
2023-03-24T05:28:26.305Z,2.70
2023-03-24T05:30:56.102Z,2.60
2023-03-24T05:33:43.100Z,2.70
2023-03-24T05:36:15.043Z,2.30
2023-03-24T05:38:44.920Z,2.40
2023-03-24T05:41:13.905Z,2.30
2023-03-24T05:43:43.605Z,2.40
2023-03-24T05:46:13.793Z,2.90
2023-03-24T05:48:42.626Z,2.60
2023-03-24T05:51:17.859Z,2.90
2023-03-24T05:53:47.261Z,2.90
2023-03-24T05:56:22.417Z,2.10
2023-03-24T05:59:04.391Z,2.50
2023-03-24T06:01:54.091Z,2.60
2023-03-24T06:04:31.454Z,2.80
2023-03-24T06:07:06.092Z,2.70
2023-03-24T06:09:39.007Z,2.50
2023-03-24T06:12:11.964Z,2.70
2023-03-24T06:14:43.525Z,2.40
2023-03-24T06:17:15.595Z,2.90
2023-03-24T06:19:50.170Z,2.80
2023-03-24T06:22:27.592Z,2.40
2023-03-24T06:24:59.567Z,3.00
2023-03-24T06:27:30.540Z,2.50
2023-03-24T06:29:59.842Z,2.40
2023-03-24T06:32:29.815Z,2.60
2023-03-24T06:34:58.904Z,2.60
2023-03-24T06:37:58.430Z,2.90
2023-03-24T06:40:29.367Z,2.30
2023-03-24T06:43:00.228Z,2.70
2023-03-24T06:45:43.167Z,2.00
2023-03-24T06:48:15.891Z,2.70
2023-03-24T06:50:45.462Z,2.50
2023-03-24T06:53:15.013Z,2.70
2023-03-24T06:55:44.239Z,2.60
2023-03-24T06:58:16.225Z,3.10
2023-03-24T07:01:01.654Z,2.60
2023-03-24T07:03:59.314Z,2.50
2023-03-24T07:06:51.320Z,2.80
2023-03-24T07:09:30.462Z,2.80
2023-03-24T07:12:00.890Z,2.60
2023-03-24T07:14:29.670Z,3.10
2023-03-24T07:16:59.799Z,3.00
2023-03-24T07:19:42.006Z,2.80
2023-03-24T07:22:31.395Z,2.90
2023-03-24T07:25:35.691Z,3.00
2023-03-24T07:28:15.975Z,2.50
2023-03-24T07:30:44.833Z,2.90
2023-03-24T07:33:14.549Z,2.40
2023-03-24T07:35:46.510Z,2.90
2023-03-24T07:38:15.601Z,2.70
2023-03-24T07:40:44.898Z,3.10
2023-03-24T07:43:14.213Z,2.60
2023-03-24T07:46:12.348Z,2.70
2023-03-24T07:48:41.888Z,3.00
2023-03-24T07:51:10.485Z,2.80
2023-03-24T07:54:02.993Z,2.60
2023-03-24T07:56:35.638Z,2.40
2023-03-24T07:59:04.628Z,2.90
2023-03-24T08:01:41.371Z,3.10
2023-03-24T08:04:13.541Z,2.70
2023-03-24T08:07:09.311Z,2.70
2023-03-24T08:09:38.468Z,3.30
2023-03-24T08:12:19.229Z,2.80
2023-03-24T08:14:49.157Z,2.90
2023-03-24T08:17:18.078Z,3.40
2023-03-24T08:19:59.091Z,3.10
2023-03-24T08:22:29.721Z,2.80
2023-03-24T08:24:58.305Z,2.80
2023-03-24T08:27:27.109Z,2.80
2023-03-24T08:29:55.987Z,2.50
2023-03-24T08:32:25.153Z,2.40
2023-03-24T08:34:55.408Z,2.90
2023-03-24T08:37:24.196Z,2.30
2023-03-24T08:39:53.544Z,2.30
2023-03-24T08:42:22.793Z,2.70
2023-03-24T08:44:51.790Z,2.50
2023-03-24T08:47:20.775Z,2.70
2023-03-24T08:49:49.457Z,2.50
2023-03-24T08:52:18.668Z,2.00
2023-03-24T08:54:47.460Z,2.90
2023-03-24T08:57:17.763Z,2.10
2023-03-24T08:59:49.537Z,2.20
2023-03-24T09:02:19.837Z,2.80
2023-03-24T09:04:50.316Z,2.40
2023-03-24T09:07:19.044Z,2.50
2023-03-24T09:09:48.062Z,2.40
2023-03-24T09:12:17.245Z,2.00
2023-03-24T09:14:50.506Z,2.10
2023-03-24T09:17:19.430Z,2.60
2023-03-24T09:19:48.318Z,2.30
2023-03-24T09:22:17.219Z,1.60
2023-03-24T09:24:46.413Z,1.30
2023-03-24T09:27:16.727Z,1.90
2023-03-24T09:29:45.411Z,1.60
2023-03-24T09:32:14.252Z,1.60
2023-03-24T09:34:43.305Z,1.50
2023-03-24T09:37:13.388Z,1.30
2023-03-24T09:39:42.532Z,1.60
2023-03-24T09:42:29.329Z,1.50
2023-03-24T09:44:59.749Z,1.70
2023-03-24T09:47:34.053Z,2.20
2023-03-24T09:50:07.560Z,1.70
2023-03-24T09:52:40.858Z,2.00
2023-03-24T09:55:15.972Z,1.70
2023-03-24T09:57:47.302Z,1.60
2023-03-24T10:00:18.779Z,2.10
2023-03-24T10:02:50.400Z,1.70
2023-03-24T10:05:55.791Z,2.20
2023-03-24T10:08:36.267Z,1.90
2023-03-24T10:11:17.849Z,2.00
2023-03-24T10:14:31.492Z,2.20
2023-03-24T10:17:17.838Z,2.20
2023-03-24T10:19:49.560Z,2.70
2023-03-24T10:22:33.700Z,1.90
2023-03-24T10:25:20.708Z,2.30
2023-03-24T10:27:57.345Z,2.00
2023-03-24T10:30:31.972Z,2.10
2023-03-24T10:33:00.928Z,2.70
2023-03-24T10:35:33.579Z,2.30
2023-03-24T10:38:06.361Z,2.30
2023-03-24T10:40:35.453Z,2.10
2023-03-24T10:43:06.325Z,2.00
2023-03-24T10:45:39.006Z,1.60
2023-03-24T10:48:09.766Z,1.60
2023-03-24T10:50:44.019Z,1.80
2023-03-24T10:53:19.114Z,2.10
2023-03-24T10:55:49.385Z,1.60
2023-03-24T10:58:29.132Z,1.60
2023-03-24T11:01:00.000Z,1.60
2023-03-24T11:03:31.527Z,2.10
2023-03-24T11:06:02.642Z,1.70
2023-03-24T11:08:38.312Z,1.80
2023-03-24T11:11:27.284Z,1.80
2023-03-24T11:13:58.396Z,1.60
2023-03-24T11:16:37.812Z,1.60
2023-03-24T11:19:19.711Z,1.70
2023-03-24T11:21:52.439Z,1.90
2023-03-24T11:24:21.615Z,2.00
2023-03-24T11:26:56.623Z,2.20
2023-03-24T11:29:26.556Z,1.80
2023-03-24T11:31:57.922Z,1.70
2023-03-24T11:34:34.568Z,1.70
2023-03-24T11:37:06.689Z,1.90
2023-03-24T11:39:36.377Z,2.10
2023-03-24T11:42:11.066Z,2.30
2023-03-24T11:44:39.860Z,1.80
2023-03-24T11:47:11.937Z,1.90
2023-03-24T11:49:46.183Z,2.30
2023-03-24T11:52:29.110Z,1.90
2023-03-24T11:54:57.875Z,1.90
2023-03-24T11:57:52.755Z,1.60
2023-03-24T12:00:29.631Z,2.00
2023-03-24T12:03:11.320Z,2.30
2023-03-24T12:06:05.341Z,1.60
2023-03-24T12:08:43.000Z,2.10
2023-03-24T12:11:19.371Z,1.90
2023-03-24T12:13:50.287Z,1.80
2023-03-24T12:16:34.187Z,2.10
2023-03-24T12:19:37.667Z,2.20
2023-03-24T12:22:19.765Z,2.20
2023-03-24T12:25:12.616Z,2.40
2023-03-24T12:27:56.381Z,2.40
2023-03-24T12:30:59.016Z,2.80
2023-03-24T12:33:31.941Z,2.40
2023-03-24T12:36:20.148Z,3.40
2023-03-24T12:39:01.945Z,3.00
2023-03-24T12:41:56.234Z,2.10
2023-03-24T12:44:46.934Z,2.40
2023-03-24T12:47:41.990Z,2.80
2023-03-24T12:50:33.469Z,3.10
2023-03-24T12:53:27.429Z,2.80
2023-03-24T12:56:03.909Z,2.10
2023-03-24T12:58:42.105Z,2.40
2023-03-24T13:01:32.527Z,2.30
2023-03-24T13:04:22.075Z,2.50
2023-03-24T13:07:07.460Z,2.40
2023-03-24T13:09:59.692Z,2.50
2023-03-24T13:12:46.197Z,2.20
2023-03-24T13:16:01.385Z,2.50
2023-03-24T13:18:52.935Z,2.30
2023-03-24T13:21:25.071Z,2.50
2023-03-24T13:24:09.355Z,2.30
2023-03-24T13:26:49.853Z,2.40
2023-03-24T13:29:56.050Z,2.80
2023-03-24T13:32:39.250Z,2.70
2023-03-24T13:35:26.901Z,2.40
2023-03-24T13:38:18.636Z,2.60
2023-03-24T13:40:51.802Z,2.70
2023-03-24T13:43:24.611Z,2.60
2023-03-24T13:45:59.983Z,2.60
2023-03-24T13:48:42.868Z,2.20
2023-03-24T13:51:27.387Z,2.60
2023-03-24T13:54:02.461Z,2.40
2023-03-24T13:56:41.231Z,2.20
2023-03-24T13:59:25.469Z,2.30
2023-03-24T14:02:30.038Z,2.20
2023-03-24T14:04:58.942Z,2.40
2023-03-24T14:07:41.960Z,2.30
2023-03-24T14:10:21.300Z,2.60
2023-03-24T14:13:00.427Z,2.80
2023-03-24T14:15:52.942Z,2.70
2023-03-24T14:18:26.552Z,2.60
2023-03-24T14:20:58.931Z,2.60
2023-03-24T14:23:40.778Z,2.70
2023-03-24T14:26:14.855Z,2.40
2023-03-24T14:28:49.675Z,2.50
2023-03-24T14:31:24.895Z,2.90
2023-03-24T14:33:53.728Z,2.80
2023-03-24T14:36:35.574Z,2.90
2023-03-24T14:39:21.091Z,2.40
2023-03-24T14:41:52.376Z,2.10
2023-03-24T14:44:55.299Z,2.70
2023-03-24T14:47:29.168Z,2.90
2023-03-24T14:50:00.646Z,2.60
2023-03-24T14:52:32.533Z,2.70
2023-03-24T14:55:20.790Z,2.50
2023-03-24T14:57:53.908Z,2.60
2023-03-24T15:00:34.011Z,2.50
2023-03-24T15:03:19.477Z,2.50
2023-03-24T15:05:48.291Z,2.20
2023-03-24T15:08:25.682Z,2.20
2023-03-24T15:11:04.930Z,2.30
2023-03-24T15:13:46.287Z,2.80
2023-03-24T15:16:15.382Z,2.20
2023-03-24T15:19:02.666Z,2.20
2023-03-24T15:21:42.506Z,2.10
2023-03-24T15:24:23.655Z,2.00
2023-03-24T15:27:20.912Z,2.50
2023-03-24T15:29:55.513Z,2.20
2023-03-24T15:32:27.817Z,1.90
2023-03-24T15:34:59.314Z,1.80
2023-03-24T15:37:40.836Z,2.30
2023-03-24T15:40:31.410Z,2.00
2023-03-24T15:43:03.212Z,2.30
2023-03-24T15:45:34.676Z,2.30
2023-03-24T15:48:08.418Z,2.10
2023-03-24T15:50:39.327Z,2.10
2023-03-24T15:53:25.531Z,2.00
2023-03-24T15:56:14.565Z,2.00
2023-03-24T15:58:52.460Z,1.40
2023-03-24T16:01:27.777Z,1.40
2023-03-24T16:03:56.603Z,1.60
2023-03-24T16:06:30.536Z,1.70
2023-03-24T16:09:00.930Z,1.60
2023-03-24T16:11:30.198Z,1.50
2023-03-24T16:13:59.494Z,1.60
2023-03-24T16:16:31.044Z,1.50
2023-03-24T16:19:00.296Z,1.50
2023-03-24T16:21:30.783Z,1.70
2023-03-24T16:24:01.193Z,1.50
2023-03-24T16:26:32.259Z,1.70
2023-03-24T16:29:22.869Z,2.00
2023-03-24T16:31:53.968Z,2.00
2023-03-24T16:34:24.194Z,1.80
2023-03-24T16:36:54.749Z,1.30
2023-03-24T16:39:26.756Z,1.60
2023-03-24T16:41:57.048Z,1.80
2023-03-24T16:44:26.335Z,1.70
2023-03-24T16:46:56.315Z,1.50
2023-03-24T16:49:25.479Z,1.80
2023-03-24T16:51:54.538Z,1.50
2023-03-24T16:54:23.730Z,1.60
2023-03-24T16:59:36.056Z,1.70
2023-03-24T17:02:06.906Z,2.00
2023-03-24T17:04:37.235Z,2.00
2023-03-24T17:07:06.618Z,1.80
2023-03-24T17:09:36.705Z,2.10
2023-03-24T17:12:06.017Z,1.90
2023-03-24T17:14:36.153Z,1.90
2023-03-24T17:17:08.128Z,1.70
2023-03-24T17:19:38.701Z,1.70
2023-03-24T17:22:08.987Z,2.00
2023-03-24T17:24:40.232Z,1.90
2023-03-24T17:27:17.736Z,1.90
2023-03-24T17:29:50.684Z,2.30
2023-03-24T17:32:22.169Z,2.10
2023-03-24T17:34:52.149Z,2.40
2023-03-24T17:37:21.554Z,2.40
2023-03-24T17:39:54.286Z,2.20
2023-03-24T17:42:29.543Z,2.20
2023-03-24T17:45:01.472Z,2.60
2023-03-24T17:47:31.588Z,2.20
2023-03-24T17:50:02.826Z,1.90
2023-03-24T17:52:33.337Z,1.30
2023-03-24T17:55:05.938Z,1.30
2023-03-24T17:57:36.994Z,1.10
2023-03-24T18:00:13.213Z,1.30
2023-03-24T18:02:45.173Z,1.20
2023-03-24T18:05:16.265Z,1.50
2023-03-24T18:07:46.231Z,1.30
2023-03-24T18:10:16.435Z,1.50
2023-03-24T18:12:46.167Z,1.60
2023-03-24T18:15:15.561Z,1.50
2023-03-24T18:17:45.877Z,1.70
2023-03-24T18:20:15.998Z,1.70
2023-03-24T18:22:47.690Z,1.20
2023-03-24T18:25:17.280Z,1.60
2023-03-24T18:27:48.250Z,1.60
2023-03-24T18:30:19.293Z,1.20
2023-03-24T18:32:50.444Z,1.60
2023-03-24T18:35:21.004Z,1.80
2023-03-24T18:37:51.644Z,1.60
2023-03-24T18:40:23.861Z,2.00
2023-03-24T18:42:54.068Z,1.80
2023-03-24T18:45:25.068Z,1.80
2023-03-24T18:48:00.097Z,2.10
2023-03-24T18:50:32.732Z,1.80
2023-03-24T18:53:04.810Z,1.90
2023-03-24T18:55:36.015Z,1.70
2023-03-24T18:58:15.732Z,1.50
2023-03-24T19:00:51.788Z,2.30
2023-03-24T19:03:24.670Z,2.20
2023-03-24T19:05:54.814Z,1.80
2023-03-24T19:08:25.981Z,2.10
2023-03-24T19:10:56.916Z,2.30
2023-03-24T19:13:28.160Z,2.50
2023-03-24T19:15:59.910Z,2.30
2023-03-24T19:18:30.742Z,2.90
2023-03-24T19:21:03.575Z,2.80
2023-03-24T19:23:33.963Z,3.30
2023-03-24T19:26:04.459Z,3.50
2023-03-24T19:28:37.593Z,3.30
2023-03-24T19:31:11.612Z,3.30
2023-03-24T19:33:42.279Z,3.20
2023-03-24T19:36:16.283Z,3.00
2023-03-24T19:38:46.674Z,2.40
2023-03-24T19:41:16.801Z,3.10
2023-03-24T19:43:48.016Z,3.20
2023-03-24T19:46:22.107Z,3.30
2023-03-24T19:48:55.655Z,3.10
2023-03-24T19:51:26.252Z,3.20
2023-03-24T19:53:56.014Z,3.50
2023-03-24T19:56:26.993Z,3.00
2023-03-24T19:58:58.481Z,3.40
2023-03-24T20:01:36.560Z,3.10
2023-03-24T20:04:07.567Z,3.00
2023-03-24T20:06:39.883Z,3.00
2023-03-24T20:09:09.576Z,3.80
2023-03-24T20:11:40.954Z,3.40
2023-03-24T20:14:11.957Z,6.20
2023-03-24T20:16:41.824Z,4.10
2023-03-24T20:19:13.486Z,4.00
2023-03-24T20:21:46.079Z,3.20
2023-03-24T20:24:17.884Z,3.90
2023-03-24T20:26:48.998Z,3.90
2023-03-24T20:29:20.235Z,4.40
2023-03-24T20:31:51.253Z,4.50
2023-03-24T20:34:30.722Z,4.70
2023-03-24T20:37:02.197Z,4.40
2023-03-24T20:39:33.435Z,4.30
2023-03-24T20:42:05.602Z,4.50
2023-03-24T20:44:35.388Z,4.40
2023-03-24T20:47:07.924Z,3.30
2023-03-24T20:49:38.909Z,3.70
2023-03-24T20:52:14.877Z,4.20
2023-03-24T20:54:47.066Z,4.10
2023-03-24T20:57:22.700Z,4.20
2023-03-24T20:59:53.506Z,3.00
2023-03-24T21:02:25.346Z,2.50
2023-03-24T21:04:56.734Z,2.70
2023-03-24T21:07:28.197Z,2.10
2023-03-24T21:10:01.228Z,2.60
2023-03-24T21:12:32.467Z,2.50
2023-03-24T21:15:03.361Z,2.10
2023-03-24T21:17:33.501Z,2.10
2023-03-24T21:20:14.239Z,2.30
2023-03-24T21:22:57.151Z,2.30
2023-03-24T21:25:28.500Z,2.30
2023-03-24T21:27:59.041Z,2.60
2023-03-24T21:30:30.171Z,2.70
2023-03-24T21:33:00.966Z,3.30
2023-03-24T21:35:30.871Z,2.70
2023-03-24T21:38:01.823Z,3.40
2023-03-24T21:40:31.440Z,3.10
2023-03-24T21:43:05.069Z,2.80
2023-03-24T21:45:36.315Z,2.50
2023-03-24T21:48:07.194Z,2.60
2023-03-24T21:50:39.255Z,3.80
2023-03-24T21:53:15.684Z,2.70
2023-03-24T21:55:56.030Z,2.30
2023-03-24T21:58:24.737Z,2.30
2023-03-24T22:00:55.774Z,2.20
2023-03-24T22:03:26.016Z,2.10
2023-03-24T22:05:56.828Z,2.30
2023-03-24T22:08:31.004Z,1.80
2023-03-24T22:11:04.521Z,1.70
2023-03-24T22:13:34.137Z,1.80
2023-03-24T22:16:04.675Z,1.80
2023-03-24T22:18:34.919Z,1.80
2023-03-24T22:21:08.251Z,1.70
2023-03-24T22:23:40.290Z,1.70
2023-03-24T22:26:14.406Z,1.90
2023-03-24T22:28:44.005Z,2.40
2023-03-24T22:31:15.442Z,1.80
2023-03-24T22:33:45.031Z,1.70
2023-03-24T22:36:14.050Z,1.70
2023-03-24T22:38:43.037Z,1.50
2023-03-24T22:41:13.965Z,1.70
2023-03-24T22:43:42.550Z,1.90
2023-03-24T22:46:11.786Z,2.20
2023-03-24T22:48:40.963Z,2.20
2023-03-24T22:51:10.134Z,2.20
2023-03-24T22:53:41.346Z,1.90
2023-03-24T22:56:10.991Z,2.10
2023-03-24T22:58:40.910Z,1.80
2023-03-24T23:01:10.705Z,1.90
2023-03-24T23:03:39.716Z,1.50
2023-03-24T23:06:12.045Z,1.70
2023-03-24T23:08:41.080Z,1.70
2023-03-24T23:11:10.157Z,1.80
2023-03-24T23:13:39.454Z,1.90
2023-03-24T23:16:09.079Z,1.90
2023-03-24T23:18:38.225Z,1.90
2023-03-24T23:21:12.064Z,1.90
2023-03-24T23:23:41.585Z,2.00
2023-03-24T23:26:26.055Z,1.90
2023-03-24T23:28:55.778Z,1.80
2023-03-24T23:31:26.861Z,2.10
2023-03-24T23:33:57.666Z,2.10
2023-03-24T23:36:26.879Z,2.50
2023-03-24T23:38:56.546Z,2.20
2023-03-24T23:41:25.533Z,2.40
2023-03-24T23:43:54.855Z,1.90
2023-03-24T23:46:24.797Z,2.20
2023-03-24T23:48:53.952Z,2.10
2023-03-24T23:51:22.958Z,2.30
2023-03-24T23:53:51.608Z,2.10
2023-03-24T23:56:22.256Z,2.40
2023-03-24T23:58:51.053Z,2.30
